Delight, Arkansas
Current Conditions -  °F | °C
As of 4:56 PM on Saturday 25 Oct 2014 (Local Time) from KADF Reporting Station
Clear Clear  
Wind Chill: 82°   Ceiling: Unl
Heat Index: 84°   Visibility: 10mi
Dew Point: 66°   Wind: 8mph
Humidity: 58%   Direction: 220°SW
Pressure: 30.05"   Gusts: NA
Location:  34.03°N, 93.5°W
Report Text: KADF 252156Z AUTO 22007KT 10SM CLR 28/19 A3005 RMK AO2 T02770188 SLP189
Loading
Personal Weather Stations






























Interactive Weather Map New forecast layout! Learn more

10-Day Weather Forecast

Advertisements
Track Severe Weather on mobile